Time;durP1;ratioP1;P1;durP2;ratioP2;P2;SDS_P1;SDS_P2;PMS_P1;PMS_P2;Temp;Humidity;BMP_temperature;BMP_pressure;BME280_temperature;BME280_humidity;BME280_pressure;Samples;Min_cycle;Max_cycle;Signal;HPM_P1;HPM_P2
2021/07/29 00:02:27;;;;;;;13.20;8.30;;;;;;;23.04;63.12;98656.23;262002;1092;116089;-72
2021/07/29 00:07:41;;;;;;;12.50;8.50;;;;;;;23.02;63.08;98641.99;261396;1091;115086;-71
2021/07/29 00:12:47;;;;;;;16.50;8.47;;;;;;;22.98;63.07;98646.11;262710;1092;116182;-72
2021/07/29 00:23:00;;;;;;;14.43;8.47;;;;;;;22.99;63.33;98645.91;262923;1092;116831;-67
2021/07/29 00:28:04;;;;;;;13.10;8.23;;;;;;;22.98;63.48;98637.97;263587;1092;115152;-69
2021/07/29 00:33:08;;;;;;;12.33;7.83;;;;;;;22.93;63.69;98645.80;262612;1092;115918;-71
2021/07/29 00:38:11;;;;;;;9.80;7.55;;;;;;;22.87;63.57;98658.22;263948;1092;115659;-70
2021/07/29 00:43:16;;;;;;;11.15;6.78;;;;;;;22.81;63.83;98664.38;263337;1092;115533;-68
2021/07/29 00:48:21;;;;;;;14.10;7.30;;;;;;;22.74;63.87;98660.70;263789;1092;115986;-70
2021/07/29 00:53:26;;;;;;;11.88;7.28;;;;;;;22.62;64.07;98665.70;264039;1092;116751;-70
2021/07/29 00:58:30;;;;;;;11.57;7.93;;;;;;;22.53;64.08;98670.36;263011;1093;115219;-74
2021/07/29 01:03:33;;;;;;;12.65;8.28;;;;;;;22.47;64.60;98668.36;262966;1092;116673;-77
2021/07/29 01:09:01;;;;;;;16.97;7.87;;;;;;;22.41;64.76;98669.91;262921;1093;115128;-73
2021/07/29 01:14:07;;;;;;;11.47;8.90;;;;;;;22.39;64.87;98673.85;262689;1093;115933;-77
2021/07/29 01:19:12;;;;;;;12.70;9.27;;;;;;;22.39;65.43;98669.27;263855;1092;115491;-71
2021/07/29 01:24:28;;;;;;;12.00;9.33;;;;;;;22.39;65.51;98668.43;263910;1092;115611;-72
2021/07/29 01:29:32;;;;;;;13.80;9.00;;;;;;;22.40;65.83;98672.82;261443;1092;115519;-72
2021/07/29 01:34:37;;;;;;;15.97;10.77;;;;;;;22.43;65.85;98667.04;262370;1092;115834;-71
2021/07/29 01:39:42;;;;;;;16.63;10.77;;;;;;;22.44;65.93;98658.71;261249;1092;115674;-72
2021/07/29 01:44:46;;;;;;;;;;;;;;;22.46;66.28;98673.98;262542;1092;115178;-73
2021/07/29 01:49:50;;;;;;;13.30;10.97;;;;;;;22.39;66.15;98671.98;264069;1092;101155;-71
2021/07/29 01:54:54;;;;;;;;;;;;;;;;;;263790;1092;117102;-72
2021/07/29 01:59:59;;;;;;;14.43;9.87;;;;;;;22.37;66.52;98673.17;263811;1092;101156;-70
2021/07/29 02:05:03;;;;;;;12.55;9.38;;;;;;;22.38;66.49;98675.73;262527;1092;115198;-71
2021/07/29 02:10:07;;;;;;;14.75;10.68;;;;;;;22.39;66.92;98688.25;262261;1093;115770;-71
2021/07/29 02:15:11;;;;;;;;;;;;;;;22.39;66.52;98684.70;262348;1092;114966;-72
2021/07/29 02:20:19;;;;;;;10.93;8.93;;;;;;;22.37;66.52;98682.15;263611;1093;103079;-67
2021/07/29 02:25:23;;;;;;;;;;;;;;;22.37;66.65;98695.70;263922;1092;115564;-70
2021/07/29 02:30:27;;;;;;;11.93;9.27;;;;;;;22.34;66.70;98698.77;264020;1092;101439;-69
2021/07/29 02:35:31;;;;;;;12.95;9.23;;;;;;;22.32;66.21;98695.42;263767;1092;116257;-70
2021/07/29 02:40:34;;;;;;;15.60;9.50;;;;;;;22.30;66.49;98683.05;263963;1093;115863;-70
2021/07/29 02:45:37;;;;;;;11.73;8.10;;;;;;;22.26;66.62;98687.99;263916;1092;116391;-68
2021/07/29 02:50:41;;;;;;;14.90;8.85;;;;;;;22.25;66.18;98677.31;263905;1093;114891;-66
2021/07/29 02:55:45;;;;;;;12.05;8.93;;;;;;;22.24;66.33;98673.76;263825;1093;115328;-69
2021/07/29 03:00:48;;;;;;;12.70;8.47;;;;;;;22.20;66.47;98667.85;263980;1093;115588;-70
2021/07/29 03:05:52;;;;;;;9.40;7.48;;;;;;;22.20;66.29;98665.14;263878;1092;114718;-65
2021/07/29 03:10:58;;;;;;;9.78;7.33;;;;;;;22.18;66.20;98674.47;264028;1091;115706;-71
2021/07/29 03:16:02;;;;;;;10.03;7.63;;;;;;;22.13;66.40;98669.55;263888;1092;115413;-73
2021/07/29 03:21:06;;;;;;;11.98;7.45;;;;;;;22.13;66.23;98660.59;263929;1093;116444;-68
2021/07/29 03:26:10;;;;;;;14.78;8.05;;;;;;;22.08;66.30;98677.39;263927;1093;115337;-66
2021/07/29 03:31:13;;;;;;;14.90;8.20;;;;;;;22.05;66.02;98683.17;263592;1093;116326;-70
2021/07/29 03:36:17;;;;;;;11.55;7.40;;;;;;;22.00;66.12;98690.97;263904;1092;116083;-71
2021/07/29 03:41:21;;;;;;;21.05;16.53;;;;;;;22.23;67.63;98696.48;263765;1093;115525;-70
2021/07/29 03:46:25;;;;;;;21.20;13.95;;;;;;;22.76;67.51;98700.20;262591;1092;115547;-68
2021/07/29 03:51:33;;;;;;;15.43;13.27;;;;;;;23.09;67.29;98683.66;261305;1093;115515;-68
2021/07/29 03:56:39;;;;;;;18.83;11.60;;;;;;;23.33;66.51;98696.98;261935;1092;116189;-70
2021/07/29 04:01:48;;;;;;;37.03;28.90;;;;;;;23.46;65.91;98704.50;261615;1092;117073;-69
2021/07/29 04:07:00;;;;;;;15.03;11.90;;;;;;;23.58;65.48;98700.31;261906;1092;115063;-67
2021/07/29 04:12:10;;;;;;;49.20;38.07;;;;;;;23.63;65.25;98704.33;261943;1091;115499;-67
2021/07/29 04:17:21;;;;;;;20.07;16.50;;;;;;;23.66;64.87;98706.68;261908;1092;116361;-68
2021/07/29 04:22:35;;;;;;;14.73;11.60;;;;;;;23.70;64.64;98708.85;261917;1091;115196;-68
2021/07/29 04:27:50;;;;;;;17.17;11.67;;;;;;;23.73;64.34;98704.92;261625;1092;116320;-69
2021/07/29 04:33:01;;;;;;;12.73;9.37;;;;;;;23.72;63.98;98709.52;262062;1092;115001;-68
2021/07/29 04:38:12;;;;;;;18.23;9.90;;;;;;;23.35;63.27;98721.27;261864;1092;115003;-69
2021/07/29 04:43:26;;;;;;;14.47;9.63;;;;;;;22.90;63.22;98725.70;262030;1092;119585;-69
2021/07/29 04:48:35;;;;;;;13.97;8.57;;;;;;;22.57;63.56;98728.64;262139;1092;114671;-71
2021/07/29 04:53:45;;;;;;;12.87;8.67;;;;;;;22.36;63.97;98736.58;261878;1093;114716;-70
2021/07/29 04:58:57;;;;;;;12.80;9.00;;;;;;;22.18;64.05;98731.39;261798;1092;114758;-69
2021/07/29 05:04:11;;;;;;;14.87;8.83;;;;;;;22.04;64.33;98730.23;261920;1091;114797;-68
2021/07/29 05:09:24;;;;;;;12.55;9.43;;;;;;;21.92;64.61;98723.53;261785;1092;114865;-71
2021/07/29 05:14:56;;;;;;;14.23;9.37;;;;;;;21.88;65.04;98736.59;262268;1092;115503;-69
2021/07/29 05:20:03;;;;;;;15.27;9.83;;;;;;;21.89;65.39;98734.72;261838;1092;115828;-69
2021/07/29 05:25:12;;;;;;;15.57;10.70;;;;;;;21.95;65.66;98734.86;261567;1092;115645;-70
2021/07/29 05:30:16;;;;;;;17.53;12.15;;;;;;;22.01;65.85;98733.33;263857;1093;116013;-71
2021/07/29 05:35:19;;;;;;;16.35;10.70;;;;;;;21.99;65.77;98738.06;263992;1092;115014;-70
2021/07/29 05:40:23;;;;;;;16.15;9.55;;;;;;;21.96;65.75;98739.25;263921;1091;115360;-69
2021/07/29 05:45:32;;;;;;;15.85;10.65;;;;;;;21.99;65.63;98743.48;263909;1093;115757;-69
2021/07/29 05:50:35;;;;;;;16.83;11.63;;;;;;;22.01;65.83;98749.59;263903;1093;116108;-69
2021/07/29 05:55:42;;;;;;;19.90;12.70;;;;;;;21.99;65.77;98739.94;263895;1093;115527;-68
2021/07/29 06:00:46;;;;;;;18.93;13.83;;;;;;;21.98;65.58;98736.38;263941;1092;114733;-69
2021/07/29 06:05:51;;;;;;;18.83;12.90;;;;;;;22.02;65.53;98758.56;264047;1092;116194;-69
2021/07/29 06:10:55;;;;;;;21.13;14.43;;;;;;;22.13;65.70;98763.59;263930;1093;114824;-70
2021/07/29 06:16:01;;;;;;;18.95;14.18;;;;;;;22.14;65.61;98767.98;263927;1091;115248;-71
2021/07/29 06:21:05;;;;;;;22.10;13.77;;;;;;;22.16;65.66;98774.11;263968;1092;116075;-69
2021/07/29 06:26:10;;;;;;;24.43;18.30;;;;;;;22.31;66.11;98774.20;262549;1092;115635;-70
2021/07/29 06:31:14;;;;;;;22.10;12.93;;;;;;;22.47;66.29;98779.55;263553;1092;116072;-70
2021/07/29 06:36:18;;;;;;;19.10;11.90;;;;;;;22.65;65.74;98781.98;263548;1093;115196;-70
2021/07/29 06:41:22;;;;;;;16.93;11.53;;;;;;;22.84;65.74;98784.25;263564;1092;115476;-71
2021/07/29 06:46:25;;;;;;;19.75;13.58;;;;;;;22.99;65.62;98781.63;261844;1091;115783;-69
2021/07/29 06:51:29;;;;;;;74.30;51.13;;;;;;;23.12;65.14;98786.45;263389;1093;115861;-72
2021/07/29 06:56:34;;;;;;;20.35;11.38;;;;;;;23.13;64.82;98791.72;262568;1092;115529;-70
2021/07/29 07:01:37;;;;;;;13.05;8.88;;;;;;;23.13;64.53;98780.86;263385;1092;119255;-75
2021/07/29 07:06:41;;;;;;;15.78;9.60;;;;;;;23.18;64.60;98790.32;262721;1093;116127;-70
2021/07/29 07:11:45;;;;;;;12.30;9.38;;;;;;;23.23;64.32;98790.61;263453;1093;115365;-71
2021/07/29 07:16:48;;;;;;;15.18;9.80;;;;;;;23.27;63.82;98787.36;263881;1092;115458;-71
2021/07/29 07:21:52;;;;;;;14.53;9.90;;;;;;;23.31;63.69;98791.39;262689;1092;115937;-70
2021/07/29 07:26:56;;;;;;;12.75;8.58;;;;;;;23.33;63.42;98786.61;262401;1093;115472;-69
2021/07/29 07:32:00;;;;;;;14.20;8.23;;;;;;;23.31;63.25;98790.55;263449;1092;116343;-69
2021/07/29 07:37:04;;;;;;;;;;;;;;;23.32;63.22;98790.36;263553;1092;115866;-73
2021/07/29 07:42:08;;;;;;;12.93;7.23;;;;;;;23.37;62.83;98787.95;263909;1093;101759;-71
2021/07/29 07:47:11;;;;;;;12.28;8.03;;;;;;;23.37;62.78;98774.38;263921;1093;115438;-72
2021/07/29 07:52:15;;;;;;;11.55;7.45;;;;;;;23.44;62.74;98773.61;263343;1093;116019;-72
2021/07/29 07:57:19;;;;;;;11.33;6.93;;;;;;;23.48;62.69;98781.23;263246;1092;115990;-69
2021/07/29 08:02:22;;;;;;;10.28;6.33;;;;;;;23.51;62.30;98780.02;263473;1092;115812;-72
2021/07/29 08:07:26;;;;;;;8.90;5.80;;;;;;;23.54;62.17;98780.50;263609;1093;115669;-71
2021/07/29 08:12:30;;;;;;;66.28;49.53;;;;;;;23.53;61.70;98772.52;263701;1092;114838;-72
2021/07/29 08:17:34;;;;;;;16.17;8.17;;;;;;;23.53;61.42;98775.23;263749;1092;115688;-69
2021/07/29 08:22:38;;;;;;;18.10;8.58;;;;;;;23.51;61.14;98774.59;263551;1092;115987;-69
2021/07/29 08:27:42;;;;;;;10.83;6.38;;;;;;;23.51;61.22;98777.31;263590;1092;115167;-72
2021/07/29 08:32:46;;;;;;;10.83;5.90;;;;;;;23.58;61.06;98767.39;263682;1093;116365;-69
2021/07/29 08:37:50;;;;;;;7.53;4.45;;;;;;;23.66;60.96;98761.86;263815;1092;116121;-69
2021/07/29 08:42:53;;;;;;;7.00;4.80;;;;;;;23.72;60.39;98760.31;263569;1093;115143;-68
2021/07/29 08:48:01;;;;;;;4.75;4.33;;;;;;;23.77;60.19;98769.58;263490;1092;115961;-68
2021/07/29 08:53:04;;;;;;;8.83;4.43;;;;;;;23.83;59.69;98766.12;263662;1093;115198;-70
2021/07/29 08:58:10;;;;;;;6.50;4.13;;;;;;;23.88;59.42;98760.14;262994;1092;115659;-74
2021/07/29 09:03:23;;;;;;;;;;;;;;;23.88;59.41;98767.42;263638;1092;115000;-74
2021/07/29 09:08:44;;;;;;;6.80;4.40;;;;;;;23.93;59.10;98765.84;263486;1092;102375;-70
2021/07/29 09:14:18;;;;;;;7.23;4.37;;;;;;;24.02;58.96;98763.89;263710;1093;115362;-70
2021/07/29 09:19:30;;;;;;;;;;;;;;;24.08;58.79;98765.83;263665;1093;114801;-71
2021/07/29 09:24:34;;;;;;;8.47;7.30;;;;;;;24.13;58.48;98755.24;262062;1092;113033;-71
2021/07/29 09:29:38;;;;;;;6.70;5.03;;;;;;;24.15;58.18;98750.47;263160;1092;114575;-71
2021/07/29 09:34:47;;;;;;;8.23;5.28;;;;;;;24.21;57.86;98754.29;263658;1092;114764;-71
2021/07/29 09:39:59;;;;;;;6.53;5.27;;;;;;;24.26;57.75;98741.82;262741;1093;115761;-70
2021/07/29 09:45:03;;;;;;;36.97;28.30;;;;;;;24.36;57.58;98743.41;262781;1092;115156;-68
2021/07/29 09:50:07;;;;;;;11.70;7.13;;;;;;;24.47;57.78;98745.66;263468;1093;115568;-69
2021/07/29 09:55:11;;;;;;;7.93;5.90;;;;;;;24.59;57.65;98737.82;263243;1092;210667;-69
2021/07/29 10:00:15;;;;;;;8.45;5.78;;;;;;;24.75;57.43;98734.86;263295;1093;115034;-72
2021/07/29 10:05:37;;;;;;;10.30;5.98;;;;;;;24.77;57.17;98741.80;263544;1092;115204;-72
2021/07/29 10:10:45;;;;;;;7.63;4.93;;;;;;;24.82;56.90;98735.77;263571;1092;115428;-75
2021/07/29 10:15:48;;;;;;;8.23;5.63;;;;;;;24.95;56.71;98726.90;263663;1093;115091;-70
2021/07/29 10:21:23;;;;;;;6.37;4.50;;;;;;;25.08;56.25;98728.91;263752;1092;115272;-71
2021/07/29 10:26:29;;;;;;;8.93;4.87;;;;;;;25.18;55.85;98718.55;263499;1093;117328;-71
2021/07/29 10:31:55;;;;;;;8.40;4.97;;;;;;;25.33;55.82;98713.84;263270;1092;115664;-73
2021/07/29 10:37:00;;;;;;;9.13;4.73;;;;;;;25.54;55.64;98723.00;260930;1092;115011;-70
2021/07/29 10:42:04;;;;;;;10.27;4.20;;;;;;;25.70;55.01;98718.08;263543;1092;115521;-72
2021/07/29 10:47:07;;;;;;;6.50;4.70;;;;;;;25.88;54.56;98708.56;263412;1093;115339;-70
2021/07/29 10:52:12;;;;;;;6.73;5.40;;;;;;;26.00;54.68;98712.41;263325;1092;116086;-71
2021/07/29 10:57:16;;;;;;;7.73;4.90;;;;;;;26.03;54.07;98708.45;262599;1092;115086;-70
2021/07/29 11:02:48;;;;;;;7.43;4.85;;;;;;;26.11;53.56;98713.72;263265;1093;115554;-72
2021/07/29 11:07:52;;;;;;;7.07;4.87;;;;;;;26.10;53.33;98718.33;263474;1093;115780;-73
2021/07/29 11:12:56;;;;;;;8.03;5.17;;;;;;;26.27;52.95;98702.45;261470;1092;115028;-71
2021/07/29 11:18:11;;;;;;;7.43;4.60;;;;;;;26.37;52.84;98696.62;263786;1093;115410;-71
2021/07/29 11:23:32;;;;;;;8.53;5.40;;;;;;;26.56;52.71;98695.88;263589;1092;116309;-72
2021/07/29 11:28:36;;;;;;;6.47;4.70;;;;;;;26.74;52.58;98691.70;261116;1092;114661;-70
2021/07/29 11:33:59;;;;;;;5.77;5.13;;;;;;;26.91;52.04;98687.52;262687;1093;115191;-72
2021/07/29 11:39:08;;;;;;;6.60;5.90;;;;;;;27.04;51.64;98690.27;263474;1092;114976;-71
2021/07/29 11:44:11;;;;;;;8.23;4.47;;;;;;;27.21;51.68;98677.05;263231;1093;115327;-70
2021/07/29 11:49:15;;;;;;;6.30;4.73;;;;;;;27.41;50.90;98689.84;263117;1092;115248;-71
2021/07/29 11:54:23;;;;;;;8.18;4.45;;;;;;;27.56;50.11;98682.25;263794;1092;115507;-70
2021/07/29 11:59:56;;;;;;;5.00;4.50;;;;;;;27.70;49.80;98681.16;263359;1092;114661;-72
2021/07/29 12:05:04;;;;;;;8.60;4.60;;;;;;;27.86;49.46;98674.43;263537;1092;115223;-72
2021/07/29 12:10:09;;;;;;;7.80;4.90;;;;;;;27.99;49.07;98668.91;263686;1092;115351;-71
2021/07/29 12:15:16;;;;;;;6.53;4.67;;;;;;;28.14;48.64;98676.00;262480;1093;115490;-70
2021/07/29 12:20:20;;;;;;;6.90;5.07;;;;;;;28.26;48.52;98668.77;262999;1092;115869;-73
2021/07/29 12:25:31;;;;;;;6.57;5.00;;;;;;;28.39;48.30;98667.90;262067;1093;114747;-70
2021/07/29 12:30:39;;;;;;;6.27;5.03;;;;;;;28.51;48.16;98661.52;263025;1092;114879;-71
2021/07/29 12:36:04;;;;;;;5.70;5.10;;;;;;;28.65;48.10;98661.43;263417;1093;115158;-70
2021/07/29 12:41:08;;;;;;;7.35;5.13;;;;;;;28.74;47.46;98660.11;262348;1092;115736;-71
2021/07/29 12:46:21;;;;;;;5.60;4.70;;;;;;;28.78;47.00;98649.55;262854;1093;114937;-72
2021/07/29 12:51:45;;;;;;;6.33;4.35;;;;;;;28.86;46.96;98647.36;263692;1093;115761;-70
2021/07/29 12:57:07;;;;;;;6.90;4.45;;;;;;;28.92;46.46;98651.95;262403;1093;114792;-69
2021/07/29 13:02:11;;;;;;;5.87;4.30;;;;;;;29.03;46.37;98647.67;263322;1092;115405;-71
2021/07/29 13:07:15;;;;;;;5.10;4.27;;;;;;;29.20;46.38;98650.69;262749;1093;115101;-71
2021/07/29 13:12:21;;;;;;;5.60;4.30;;;;;;;29.35;45.69;98648.45;263499;1093;114537;-73
2021/07/29 13:17:25;;;;;;;4.57;4.10;;;;;;;29.53;46.11;98636.66;262760;1092;115089;-71
2021/07/29 13:22:29;;;;;;;;;;;;;;;29.76;46.45;98641.50;263395;1093;114495;-73
2021/07/29 13:27:33;;;;;;;9.20;4.90;;;;;;;29.91;45.21;98633.70;263152;1092;101862;-71
2021/07/29 13:32:37;;;;;;;7.05;4.00;;;;;;;30.07;44.78;98631.41;263089;1092;114947;-72
2021/07/29 13:37:41;;;;;;;5.70;4.20;;;;;;;29.90;44.41;98625.72;262487;1092;115352;-72
2021/07/29 13:42:48;;;;;;;;;;;;;;;29.92;44.73;98621.65;262338;1093;115589;-73
2021/07/29 13:47:58;;;;;;;7.60;3.93;;;;;;;30.08;44.48;98622.09;263524;1093;101588;-72
2021/07/29 13:53:03;;;;;;;6.07;3.90;;;;;;;29.94;43.72;98626.92;262290;1092;114665;-72
2021/07/29 13:58:06;;;;;;;4.93;3.87;;;;;;;29.69;43.37;98618.80;263152;1093;115324;-71
2021/07/29 14:03:10;;;;;;;6.38;3.78;;;;;;;29.79;43.19;98613.61;263124;1092;115487;-71
2021/07/29 14:08:14;;;;;;;4.27;3.13;;;;;;;29.98;43.08;98610.83;263663;1092;114700;-71
2021/07/29 14:13:18;;;;;;;7.85;4.00;;;;;;;30.17;43.15;98604.25;263084;1092;114644;-73
2021/07/29 14:18:22;;;;;;;6.53;3.20;;;;;;;30.37;42.76;98604.83;262739;1093;114970;-74
2021/07/29 14:23:25;;;;;;;3.73;2.83;;;;;;;30.54;42.09;98606.91;263348;1093;114785;-71
2021/07/29 14:28:29;;;;;;;3.28;2.98;;;;;;;30.59;41.45;98604.28;263460;1092;115795;-71
2021/07/29 14:33:33;;;;;;;4.10;3.27;;;;;;;30.50;41.31;98608.43;263648;1092;115854;-71
2021/07/29 14:38:37;;;;;;;5.20;2.85;;;;;;;30.37;41.03;98596.59;263246;1093;115265;-74
2021/07/29 14:43:40;;;;;;;5.30;2.90;;;;;;;30.23;41.13;98597.00;263405;1092;115334;-73
2021/07/29 14:49:12;;;;;;;4.43;2.83;;;;;;;30.10;40.72;98592.52;263429;1093;115226;-73
2021/07/29 14:54:16;;;;;;;5.70;2.80;;;;;;;29.93;41.00;98584.93;263686;1092;117480;-73
2021/07/29 16:09:24;;;;;;;4.55;3.58;;;;;;;27.99;40.93;98534.00;263527;1092;116391;-75
2021/07/29 16:14:28;;;;;;;9.00;3.40;;;;;;;27.93;40.70;98521.22;263637;1092;115705;-74
2021/07/29 16:19:35;;;;;;;8.07;3.97;;;;;;;27.85;40.61;98525.03;263478;1092;116291;-73
2021/07/29 16:24:38;;;;;;;4.77;3.50;;;;;;;27.80;40.69;98533.07;263491;1092;115643;-74
2021/07/29 16:29:42;;;;;;;5.25;3.23;;;;;;;27.72;40.67;98530.56;263054;1092;115918;-74
2021/07/29 16:34:46;;;;;;;6.70;3.70;;;;;;;27.65;40.13;98533.33;263449;1093;115358;-72
2021/07/29 16:39:49;;;;;;;4.83;3.73;;;;;;;27.58;40.66;98532.49;262443;1092;115222;-74
2021/07/29 16:44:53;;;;;;;5.30;3.58;;;;;;;27.53;40.49;98543.26;263201;1093;114978;-74
2021/07/29 16:49:57;;;;;;;7.45;3.23;;;;;;;27.46;40.91;98537.81;262282;1092;114956;-73
2021/07/29 16:55:01;;;;;;;6.58;4.08;;;;;;;27.42;40.73;98542.04;262939;1092;115134;-73
2021/07/29 17:00:05;;;;;;;6.98;3.60;;;;;;;27.39;41.16;98541.64;263187;1093;115490;-72
2021/07/29 17:05:09;;;;;;;213.53;156.13;;;;;;;27.36;40.84;98537.44;263641;1091;115571;-73
2021/07/29 17:10:13;;;;;;;7.93;6.60;;;;;;;27.33;41.14;98535.13;262754;1093;116255;-68
2021/07/29 17:15:17;;;;;;;16.60;11.78;;;;;;;27.31;41.42;98538.09;262792;1092;115050;-72
2021/07/29 17:20:20;;;;;;;6.45;3.93;;;;;;;27.29;40.93;98539.35;261901;1092;115686;-71
2021/07/29 17:25:24;;;;;;;6.83;3.70;;;;;;;27.22;41.17;98539.37;263221;1092;115266;-73
2021/07/29 17:30:29;;;;;;;5.75;4.00;;;;;;;27.20;41.31;98538.73;262140;1093;114769;-71
2021/07/29 17:35:35;;;;;;;5.20;3.83;;;;;;;27.16;41.47;98545.69;262746;1092;115162;-72
2021/07/29 17:40:40;;;;;;;244.23;184.37;;;;;;;27.12;41.68;98538.95;263474;1092;115189;-72
2021/07/29 17:45:44;;;;;;;16.73;12.23;;;;;;;27.09;41.81;98542.10;261670;1092;116077;-72
2021/07/29 17:50:47;;;;;;;21.18;15.68;;;;;;;27.04;42.49;98537.28;262470;1093;115595;-77
2021/07/29 17:55:52;;;;;;;8.28;6.28;;;;;;;26.98;42.15;98532.67;262446;1092;115552;-72
2021/07/29 18:00:56;;;;;;;7.03;3.85;;;;;;;26.96;42.41;98547.58;263738;1092;114929;-72
2021/07/29 18:06:01;;;;;;;62.20;51.93;;;;;;;26.89;42.51;98553.05;263620;1093;115204;-67
2021/07/29 18:11:05;;;;;;;19.83;8.50;;;;;;;26.83;43.16;98554.77;262965;1093;115749;-75
2021/07/29 18:16:13;;;;;;;7.83;5.30;;;;;;;26.79;43.27;98558.94;263711;1093;114849;-74
2021/07/29 18:21:18;;;;;;;6.30;4.50;;;;;;;26.74;43.30;98556.02;262233;1092;114882;-73
2021/07/29 18:26:22;;;;;;;96.78;64.50;;;;;;;26.68;42.91;98556.02;263160;1093;115205;-68
2021/07/29 18:31:25;;;;;;;12.38;7.48;;;;;;;26.61;43.43;98559.59;262901;1092;115450;-71
2021/07/29 18:36:29;;;;;;;5.30;4.57;;;;;;;26.57;43.98;98555.60;262615;1093;114891;-72
2021/07/29 18:41:33;;;;;;;317.38;264.35;;;;;;;26.49;43.66;98563.98;263516;1093;115103;-72
2021/07/29 18:46:37;;;;;;;;;;;;;;;26.46;43.91;98569.86;263242;1093;115536;-76
2021/07/29 18:51:40;;;;;;;12.17;8.40;;;;;;;26.40;44.10;98578.87;263125;1093;102223;-73
2021/07/29 18:56:45;;;;;;;8.93;5.60;;;;;;;26.36;44.49;98586.63;262907;1092;115159;-72
2021/07/29 19:01:48;;;;;;;9.23;5.50;;;;;;;26.31;44.50;98596.48;263601;1092;114953;-72
2021/07/29 19:06:52;;;;;;;7.63;5.30;;;;;;;26.24;44.84;98609.27;263808;1092;115545;-75
2021/07/29 19:11:56;;;;;;;18.15;5.78;;;;;;;26.16;44.76;98613.03;263973;1092;114424;-74
2021/07/29 19:17:00;;;;;;;11.20;5.45;;;;;;;26.07;44.76;98616.98;263865;1092;115353;-72
2021/07/29 19:22:04;;;;;;;8.75;5.10;;;;;;;25.97;45.50;98622.82;263750;1092;115501;-70
2021/07/29 19:27:08;;;;;;;83.87;60.77;;;;;;;25.89;45.40;98628.47;263857;1092;114624;-81
2021/07/29 19:32:12;;;;;;;17.95;12.13;;;;;;;25.75;45.25;98621.22;263825;1092;115932;-70
2021/07/29 19:37:15;;;;;;;9.30;5.73;;;;;;;25.56;45.35;98629.11;263792;1093;116700;-70
2021/07/29 19:42:19;;;;;;;9.50;5.27;;;;;;;25.39;45.56;98625.86;263983;1092;115498;-75
2021/07/29 19:47:25;;;;;;;6.97;4.70;;;;;;;25.22;45.72;98638.95;263735;1092;115319;-73
2021/07/29 19:52:33;;;;;;;12.00;7.13;;;;;;;25.09;45.83;98637.98;263856;1092;114745;-73
2021/07/29 19:57:38;;;;;;;7.80;4.53;;;;;;;24.99;46.21;98636.45;263794;1092;116073;-72
2021/07/29 20:02:41;;;;;;;8.17;5.27;;;;;;;24.87;46.06;98634.48;263421;1093;115549;-71
2021/07/29 20:07:45;;;;;;;6.63;4.80;;;;;;;24.73;46.63;98638.97;261014;1092;115340;-71
2021/07/29 20:12:49;;;;;;;6.38;4.68;;;;;;;24.55;46.78;98639.41;263933;1093;115028;-68
2021/07/29 20:17:53;;;;;;;;;;;;;;;24.43;46.96;98641.81;263748;1092;115525;-77
2021/07/29 20:22:58;;;;;;;7.17;5.23;;;;;;;24.31;46.89;98641.44;263823;1092;102203;-71
2021/07/29 20:28:02;;;;;;;7.88;5.35;;;;;;;24.24;47.53;98634.25;263490;1091;116992;-70
2021/07/29 20:33:06;;;;;;;9.65;5.45;;;;;;;24.11;48.18;98640.38;261607;1092;115028;-71
2021/07/29 20:38:09;;;;;;;;;;;;;;;23.91;48.48;98651.02;263500;1092;115467;-70
2021/07/29 20:43:13;;;;;;;11.70;5.70;;;;;;;23.75;49.06;98651.24;263741;1092;101697;-77
2021/07/29 20:48:17;;;;;;;9.55;5.40;;;;;;;23.59;49.02;98650.36;263599;1093;115884;-73
2021/07/29 20:53:20;;;;;;;11.55;5.68;;;;;;;23.44;49.49;98652.25;263342;1092;115744;-77
2021/07/29 20:58:27;;;;;;;12.43;6.00;;;;;;;23.29;49.60;98652.23;263422;1093;115960;-72
2021/07/29 21:03:30;;;;;;;11.77;5.10;;;;;;;23.19;50.26;98648.94;263653;1093;115738;-73
2021/07/29 21:08:37;;;;;;;11.90;6.07;;;;;;;23.11;50.66;98665.33;263523;1092;115391;-71
2021/07/29 21:13:42;;;;;;;10.00;5.67;;;;;;;23.02;50.83;98655.56;263391;1091;115389;-77
2021/07/29 21:18:46;;;;;;;14.30;5.90;;;;;;;22.91;51.03;98667.67;263770;1092;115348;-74
2021/07/29 21:23:51;;;;;;;10.57;6.10;;;;;;;22.82;51.13;98664.17;263645;1093;115108;-71
2021/07/29 21:28:55;;;;;;;25.55;15.33;;;;;;;22.75;51.64;98671.36;263710;1092;115467;-73
2021/07/29 21:34:00;;;;;;;12.37;6.50;;;;;;;22.63;51.79;98670.95;263659;1092;115660;-71
2021/07/29 21:39:04;;;;;;;10.50;6.07;;;;;;;22.55;52.29;98678.30;263450;1093;115041;-73
2021/07/29 21:44:08;;;;;;;12.60;5.75;;;;;;;22.49;52.73;98676.34;263647;1093;115524;-72
2021/07/29 21:49:12;;;;;;;16.03;6.50;;;;;;;22.40;52.77;98679.08;263332;1093;115180;-71
2021/07/29 21:54:15;;;;;;;9.55;5.65;;;;;;;22.34;53.05;98684.38;263462;1092;115169;-71
2021/07/29 21:59:19;;;;;;;10.30;6.08;;;;;;;22.26;53.38;98676.31;263537;1091;114876;-70
2021/07/29 22:04:23;;;;;;;12.70;6.13;;;;;;;22.20;53.50;98680.56;261965;1092;115819;-71
2021/07/29 22:09:26;;;;;;;15.80;7.15;;;;;;;22.22;53.76;98670.40;262674;1093;116536;-72
2021/07/29 22:14:31;;;;;;;11.65;6.60;;;;;;;22.29;53.79;98673.24;261493;1093;115127;-71
2021/07/29 22:19:36;;;;;;;11.47;6.77;;;;;;;22.36;53.74;98675.05;263574;1092;115083;-71
2021/07/29 22:24:40;;;;;;;14.45;7.15;;;;;;;22.42;53.41;98666.20;262247;1092;115002;-71
2021/07/29 22:29:44;;;;;;;12.40;7.13;;;;;;;22.44;53.53;98669.56;263065;1093;115683;-71
2021/07/29 22:34:51;;;;;;;11.85;6.68;;;;;;;22.47;53.61;98668.36;262375;1092;116485;-70
2021/07/29 22:39:55;;;;;;;10.57;6.30;;;;;;;22.44;53.62;98669.56;261556;1093;115308;-70
2021/07/29 22:45:00;;;;;;;11.40;6.90;;;;;;;22.33;54.05;98677.28;262885;1092;115573;-70
2021/07/29 22:50:06;;;;;;;19.20;7.10;;;;;;;22.16;54.23;98671.11;260992;1092;114787;-71
2021/07/29 22:55:10;;;;;;;15.77;6.40;;;;;;;21.99;54.70;98675.73;263421;1092;115234;-74
2021/07/29 23:00:15;;;;;;;15.97;6.67;;;;;;;21.88;55.38;98665.30;262029;1093;116591;-68
2021/07/29 23:05:19;;;;;;;19.43;6.33;;;;;;;21.82;55.96;98666.84;262419;1092;116280;-70
2021/07/29 23:10:27;;;;;;;15.00;6.63;;;;;;;21.77;56.06;98669.22;262630;1092;114864;-70
2021/07/29 23:15:32;;;;;;;17.97;6.90;;;;;;;21.71;56.24;98670.78;262833;1093;115197;-69
2021/07/29 23:20:37;;;;;;;11.40;6.48;;;;;;;21.65;56.59;98676.05;261178;1092;115917;-69
2021/07/29 23:30:55;;;;;;;13.20;6.35;;;;;;;21.38;56.66;98670.03;262801;1092;116595;-72
2021/07/29 23:36:03;;;;;;;12.03;6.20;;;;;;;21.24;56.81;98666.14;261413;1093;115365;-77
2021/07/29 23:41:09;;;;;;;12.83;6.30;;;;;;;21.14;57.31;98660.08;263064;1092;115214;-71
2021/07/29 23:46:14;;;;;;;15.67;6.47;;;;;;;21.03;57.33;98661.28;262561;1093;114840;-68
2021/07/29 23:51:18;;;;;;;10.20;5.98;;;;;;;20.92;57.56;98658.06;262227;1092;115967;-68
2021/07/29 23:56:22;;;;;;;9.38;6.20;;;;;;;20.88;57.95;98651.31;263755;1092;115233;-71
